Aérodrome :
LOGIN :

S'inscrire | Disclaimer

   EN    FR    IT 

 










Légende :    VFR   VFR Marginal   IFR   IFR Intensif   IFR Très Intensif
Visi : 
Plafond : 
>= 8 km
>= 3000ft
5 à 8 km
1000 à 3000 ft
1500m à 5 km
500 à 1000 ft
800 à 1500m
200 à 500 ft
< 800m
< 200 ft
Symboles :   Orages  Brouillard  Fortes neiges  Fortes précipitations  Vent > 20 kt
SIGMETs :   Divers  Orages  Givrage  Turbulence  Onde Orograph.  Cendres Volcan.






- Altitude de l'aérodrome : 242 ft
- Code IATA : DUB


EIDW - Dublin

DERNIER METAR :
  • 171330Z 16011KT 130V190 9999 FEW020 SCT036 BKN090 13/06 Q0995 NOSIG

METARs EXPIRÉS :
  • 171300Z 15008KT 120V180 9999 VCSH FEW018CB SCT060 BKN090 13/08 Q0995 NOSIG
  • 171230Z 15008KT 100V170 9999 -SHRA SCT018CB SCT050 BKN070 12/07 Q0995 NOSIG
  • 171200Z 19012KT 170V230 9999 SCT020CB BKN060 12/07 Q0996 NOSIG
  • 171130Z 20011KT 170V240 9999 FEW020CB SCT035 BKN070 13/07 Q0996 NOSIG
  • 171100Z 20008KT 160V230 9999 FEW020CB SCT035 BKN120 13/07 Q0996 NOSIG

TAF TAF EIDW
Valide du 17 à 12h jusqu'au 18 à 12h UTC


171100Z 1712/1812 18010KT 9999 FEW020
TEMPO 1712/1715 -SHRA SCT020CB
PROB30
TEMPO 1712/1714 19015G25KT 5000 SHRA BKN018CB
BECMG 1720/1722 20006KT
BECMG 1804/1807 16004KT



MET'MAP, la Météo Aéronautique d'un coup d'oeil ! - Copyright ORBIFLY Décembre 2007 - Disclaimer

ORBIFLY MET'MAP TEAM :

Programmation & Développement : Alexandra Zaïnal
Conception & Développement : Baudouin d'Aumeries
Co-Programmation & Développement : Marc-Olivier Méhu
Soutien technique & logistique : Manuel Goepfert

Contact : metmap@orbifly.com




SOURCES & CREDITS :

   NOAA